Time;durP1;ratioP1;P1;durP2;ratioP2;P2;SDS_P1;SDS_P2;PMS_P1;PMS_P2;Temp;Humidity;BMP_temperature;BMP_pressure;BME280_temperature;BME280_humidity;BME280_pressure;Samples;Min_cycle;Max_cycle;Signal;HPM_P1;HPM_P2
2022/10/25 00:02:11;;;;;;;4.07;2.47;;;;;;;;;;5073270;28;20451;-50
2022/10/25 00:04:38;;;;;;;5.90;3.20;;;;;;;;;;5073209;28;20777;-51
2022/10/25 00:07:05;;;;;;;5.77;4.17;;;;;;;;;;5072997;28;20850;-50
2022/10/25 00:09:32;;;;;;;4.27;3.30;;;;;;;;;;5072954;28;20447;-49
2022/10/25 00:11:59;;;;;;;4.80;2.50;;;;;;;;;;5072724;28;20447;-51
2022/10/25 00:14:26;;;;;;;3.27;2.43;;;;;;;;;;5072714;28;20965;-49
2022/10/25 00:16:54;;;;;;;7.20;3.10;;;;;;;;;;5073220;28;20454;-52
2022/10/25 00:19:21;;;;;;;4.70;2.90;;;;;;;;;;5072917;28;20814;-51
2022/10/25 00:21:48;;;;;;;7.63;2.70;;;;;;;;;;5073061;28;20807;-54
2022/10/25 00:24:16;;;;;;;5.32;3.35;;;;;;;;;;5073029;28;20542;-54
2022/10/25 00:26:42;;;;;;;3.57;2.87;;;;;;;;;;5072924;28;20185;-53
2022/10/25 00:29:10;;;;;;;5.82;3.40;;;;;;;;;;5073018;28;20448;-53
2022/10/25 00:31:37;;;;;;;4.40;3.00;;;;;;;;;;5072828;28;20732;-54
2022/10/25 00:34:05;;;;;;;8.20;2.20;;;;;;;;;;5072794;28;20543;-54
2022/10/25 00:36:32;;;;;;;3.30;2.90;;;;;;;;;;5072639;28;20443;-54
2022/10/25 00:38:59;;;;;;;4.28;3.13;;;;;;;;;;5072627;28;20882;-52
2022/10/25 00:41:27;;;;;;;3.23;2.93;;;;;;;;;;5072526;28;20242;-55
2022/10/25 00:43:55;;;;;;;5.20;3.43;;;;;;;;;;5072729;28;20447;-54
2022/10/25 00:46:24;;;;;;;7.13;2.90;;;;;;;;;;5076324;28;20455;-55
2022/10/25 00:48:53;;;;;;;8.60;2.87;;;;;;;;;;5076792;28;20479;-53
2022/10/25 00:51:22;;;;;;;4.20;3.00;;;;;;;;;;5076677;28;20480;-52
2022/10/25 00:53:49;;;;;;;6.93;3.20;;;;;;;;;;5076616;28;20482;-54
2022/10/25 00:56:18;;;;;;;7.43;3.10;;;;;;;;;;5076721;28;20806;-54
2022/10/25 00:58:46;;;;;;;5.57;2.63;;;;;;;;;;5076784;28;20450;-54
2022/10/25 01:01:14;;;;;;;6.90;2.93;;;;;;;;;;5076592;28;20443;-53
2022/10/25 01:03:43;;;;;;;5.43;2.70;;;;;;;;;;5076518;28;20533;-54
2022/10/25 01:06:13;;;;;;;4.77;2.93;;;;;;;;;;5076325;28;20449;-54
2022/10/25 01:08:42;;;;;;;4.97;2.97;;;;;;;;;;5076303;28;20447;-54
2022/10/25 01:11:09;;;;;;;5.77;2.53;;;;;;;;;;5076338;28;20842;-51
2022/10/25 01:13:36;;;;;;;5.27;3.23;;;;;;;;;;5076349;28;20814;-53
2022/10/25 01:16:06;;;;;;;9.37;3.10;;;;;;;;;;5076268;28;20478;-52
2022/10/25 01:18:42;;;;;;;6.13;3.43;;;;;;;;;;5076109;28;20541;-53
2022/10/25 01:21:37;;;;;;;5.97;2.80;;;;;;;;;;5076042;28;20455;-52
2022/10/25 01:24:12;;;;;;;8.47;3.27;;;;;;;;;;5076159;28;20500;-53
2022/10/25 01:26:58;;;;;;;3.37;2.60;;;;;;;;;;5075895;28;20806;-51
2022/10/25 01:29:37;;;;;;;2.43;2.10;;;;;;;;;;5075990;28;20536;-49
2022/10/25 01:32:09;;;;;;;5.50;3.33;;;;;;;;;;5075935;28;20478;-53
2022/10/25 01:34:39;;;;;;;5.63;3.13;;;;;;;;;;5075790;28;21023;-50
2022/10/25 01:37:09;;;;;;;7.80;3.77;;;;;;;;;;5076050;28;20443;-54
2022/10/25 01:39:40;;;;;;;2.78;2.35;;;;;;;;;;5075668;28;20455;-53
2022/10/25 01:42:08;;;;;;;6.03;3.00;;;;;;;;;;5075941;28;20284;-49
2022/10/25 01:44:40;;;;;;;3.80;2.80;;;;;;;;;;5076046;28;20901;-50
2022/10/25 01:47:10;;;;;;;10.37;3.43;;;;;;;;;;5075515;28;20478;-48
2022/10/25 01:49:41;;;;;;;9.23;3.50;;;;;;;;;;5076049;28;20465;-53
2022/10/25 01:52:09;;;;;;;2.97;2.67;;;;;;;;;;5075365;28;20877;-52
2022/10/25 01:54:36;;;;;;;8.60;3.40;;;;;;;;;;5075649;28;20459;-49
2022/10/25 01:57:08;;;;;;;6.80;3.83;;;;;;;;;;5075031;28;20546;-51
2022/10/25 01:59:43;;;;;;;5.73;3.07;;;;;;;;;;5075506;28;20469;-51
2022/10/25 02:02:13;;;;;;;5.60;3.80;;;;;;;;;;5075594;28;20455;-50
2022/10/25 02:04:46;;;;;;;6.38;2.72;;;;;;;;;;5075201;28;20538;-55
2022/10/25 02:07:17;;;;;;;5.97;2.70;;;;;;;;;;5075369;28;20535;-54
2022/10/25 02:09:49;;;;;;;9.13;3.20;;;;;;;;;;5075372;28;20886;-53
2022/10/25 02:12:22;;;;;;;5.73;3.37;;;;;;;;;;5075124;28;20487;-52
2022/10/25 02:14:53;;;;;;;3.03;2.77;;;;;;;;;;5075170;28;20457;-55
2022/10/25 02:17:22;;;;;;;4.57;2.63;;;;;;;;;;5074932;28;20465;-55
2022/10/25 02:19:51;;;;;;;6.33;2.97;;;;;;;;;;5075196;28;20811;-53
2022/10/25 02:22:19;;;;;;;5.20;3.00;;;;;;;;;;5075078;28;20573;-52
2022/10/25 02:24:47;;;;;;;8.43;3.10;;;;;;;;;;5075025;28;20447;-54
2022/10/25 02:27:14;;;;;;;4.83;2.97;;;;;;;;;;5074924;28;20451;-55
2022/10/25 02:29:42;;;;;;;4.67;2.63;;;;;;;;;;5074992;28;20447;-54
2022/10/25 02:32:09;;;;;;;7.20;2.87;;;;;;;;;;5074934;28;20483;-54
2022/10/25 02:34:37;;;;;;;4.30;3.20;;;;;;;;;;5074876;28;20538;-53
2022/10/25 02:37:04;;;;;;;5.10;2.80;;;;;;;;;;5074768;28;20454;-54
2022/10/25 02:39:31;;;;;;;6.20;2.90;;;;;;;;;;5074779;28;20538;-55
2022/10/25 02:42:01;;;;;;;9.67;3.10;;;;;;;;;;5074621;28;20545;-53
2022/10/25 02:44:28;;;;;;;3.80;2.30;;;;;;;;;;5074463;28;20447;-55
2022/10/25 02:46:54;;;;;;;4.63;2.80;;;;;;;;;;5074524;28;20830;-54
2022/10/25 02:49:21;;;;;;;6.00;2.90;;;;;;;;;;5074646;28;20455;-53
2022/10/25 02:51:50;;;;;;;4.87;2.47;;;;;;;;;;5074399;28;20579;-52
2022/10/25 02:54:16;;;;;;;3.70;2.87;;;;;;;;;;5074686;28;20473;-48
2022/10/25 02:56:43;;;;;;;3.50;2.90;;;;;;;;;;5074185;28;20553;-51
2022/10/25 02:59:11;;;;;;;7.53;3.37;;;;;;;;;;5074484;28;20541;-49
2022/10/25 03:01:38;;;;;;;5.47;2.90;;;;;;;;;;5074342;28;20448;-54
2022/10/25 03:04:05;;;;;;;6.40;3.07;;;;;;;;;;5074203;28;20454;-50
2022/10/25 03:06:32;;;;;;;3.40;2.97;;;;;;;;;;5074130;28;20454;-54
2022/10/25 03:09:00;;;;;;;3.90;2.97;;;;;;;;;;5073194;28;20455;-57
2022/10/25 03:11:27;;;;;;;3.67;2.67;;;;;;;;;;5073799;28;20486;-54
2022/10/25 03:13:54;;;;;;;7.10;3.10;;;;;;;;;;5074079;28;20448;-54
2022/10/25 03:16:21;;;;;;;3.47;2.80;;;;;;;;;;5073992;28;20888;-55
2022/10/25 03:18:48;;;;;;;5.50;2.90;;;;;;;;;;5073960;28;20448;-55
2022/10/25 03:21:15;;;;;;;8.53;3.00;;;;;;;;;;5073864;28;20551;-53
2022/10/25 03:23:42;;;;;;;5.30;3.90;;;;;;;;;;5073787;28;20447;-57
2022/10/25 03:26:10;;;;;;;6.30;2.70;;;;;;;;;;5073689;28;20542;-53
2022/10/25 03:28:37;;;;;;;4.33;2.73;;;;;;;;;;5073788;28;20879;-54
2022/10/25 03:31:11;;;;;;;4.93;2.87;;;;;;;;;;5073631;28;20483;-56
2022/10/25 03:33:38;;;;;;;2.57;2.37;;;;;;;;;;5073637;28;20457;-54
2022/10/25 03:36:05;;;;;;;3.90;2.80;;;;;;;;;;5073548;28;20943;-49
2022/10/25 03:38:32;;;;;;;4.63;2.60;;;;;;;;;;5073377;28;20534;-49
2022/10/25 03:40:59;;;;;;;6.40;3.10;;;;;;;;;;5073582;28;20448;-50
2022/10/25 03:43:27;;;;;;;6.30;3.17;;;;;;;;;;5073500;28;20588;-49
2022/10/25 03:45:54;;;;;;;4.10;2.40;;;;;;;;;;5073278;28;20454;-52
2022/10/25 03:48:21;;;;;;;6.57;2.60;;;;;;;;;;5073317;28;20686;-48
2022/10/25 03:50:48;;;;;;;4.60;3.00;;;;;;;;;;5073073;28;20478;-50
2022/10/25 03:53:15;;;;;;;7.90;2.90;;;;;;;;;;5073077;28;20454;-51
2022/10/25 03:55:42;;;;;;;3.77;2.43;;;;;;;;;;5073457;28;20454;-48
2022/10/25 03:58:09;;;;;;;5.60;2.57;;;;;;;;;;5073309;28;20538;-49
2022/10/25 04:00:37;;;;;;;3.37;1.90;;;;;;;;;;5073221;28;20447;-48
2022/10/25 04:03:05;;;;;;;9.83;2.60;;;;;;;;;;5073192;28;20822;-50
2022/10/25 04:05:32;;;;;;;3.73;2.53;;;;;;;;;;5072889;28;20451;-51
2022/10/25 04:07:59;;;;;;;6.03;2.00;;;;;;;;;;5073230;28;20447;-51
2022/10/25 04:10:26;;;;;;;2.30;1.83;;;;;;;;;;5073108;28;20454;-51
2022/10/25 04:12:54;;;;;;;2.30;1.60;;;;;;;;;;5073231;28;20490;-53
2022/10/25 04:15:21;;;;;;;5.40;2.73;;;;;;;;;;5072773;28;20931;-52
2022/10/25 04:17:50;;;;;;;2.53;2.20;;;;;;;;;;5073154;28;20447;-51
2022/10/25 04:20:17;;;;;;;9.70;2.53;;;;;;;;;;5072710;28;20451;-54
2022/10/25 04:22:44;;;;;;;4.37;2.63;;;;;;;;;;5073174;28;20867;-55
2022/10/25 04:25:11;;;;;;;2.77;1.93;;;;;;;;;;5073009;28;20451;-55
2022/10/25 04:27:38;;;;;;;3.33;2.30;;;;;;;;;;5073028;28;20447;-51
2022/10/25 04:30:06;;;;;;;7.97;2.87;;;;;;;;;;5073081;28;20535;-53
2022/10/25 04:32:32;;;;;;;3.63;2.30;;;;;;;;;;5072784;28;20842;-51
2022/10/25 04:35:01;;;;;;;3.90;2.10;;;;;;;;;;5072866;28;20543;-50
2022/10/25 04:37:28;;;;;;;2.17;1.97;;;;;;;;;;5072844;28;20533;-50
2022/10/25 04:39:54;;;;;;;4.63;2.60;;;;;;;;;;5072656;28;20448;-55
2022/10/25 04:42:21;;;;;;;4.87;2.17;;;;;;;;;;5072711;28;20454;-50
2022/10/25 04:44:48;;;;;;;4.90;1.87;;;;;;;;;;5072549;28;20452;-50
2022/10/25 04:47:15;;;;;;;4.40;2.33;;;;;;;;;;5072436;28;20467;-51
2022/10/25 04:49:42;;;;;;;3.58;2.63;;;;;;;;;;5072731;28;20512;-51
2022/10/25 04:52:10;;;;;;;3.60;2.30;;;;;;;;;;5072647;28;20217;-52
2022/10/25 04:54:37;;;;;;;5.03;2.83;;;;;;;;;;5072665;28;20540;-50
2022/10/25 04:57:06;;;;;;;3.43;2.20;;;;;;;;;;5072949;28;20535;-49
2022/10/25 04:59:32;;;;;;;3.80;2.50;;;;;;;;;;5072557;28;20858;-49
2022/10/25 05:01:59;;;;;;;3.20;2.33;;;;;;;;;;5072417;28;20546;-49
2022/10/25 05:04:26;;;;;;;2.30;2.10;;;;;;;;;;5072586;28;20530;-50
2022/10/25 05:06:53;;;;;;;7.23;2.80;;;;;;;;;;5072672;28;20530;-52
2022/10/25 05:09:21;;;;;;;3.67;1.70;;;;;;;;;;5072397;28;20538;-51
2022/10/25 05:11:48;;;;;;;2.80;1.83;;;;;;;;;;5072460;28;20479;-48
2022/10/25 05:14:15;;;;;;;2.23;1.60;;;;;;;;;;5072321;28;20451;-55
2022/10/25 05:16:42;;;;;;;3.50;2.33;;;;;;;;;;5072452;28;20814;-51
2022/10/25 05:19:09;;;;;;;6.40;2.10;;;;;;;;;;5072366;28;20523;-50
2022/10/25 05:21:36;;;;;;;4.97;1.90;;;;;;;;;;5072278;28;20448;-52
2022/10/25 05:24:03;;;;;;;2.80;2.30;;;;;;;;;;5072479;28;20450;-50
2022/10/25 05:26:32;;;;;;;5.40;2.53;;;;;;;;;;5072150;28;21010;-51
2022/10/25 05:28:58;;;;;;;2.20;2.10;;;;;;;;;;5071969;28;20444;-50
2022/10/25 05:31:27;;;;;;;3.38;1.80;;;;;;;;;;5073928;28;20830;-51
2022/10/25 05:33:55;;;;;;;4.75;2.50;;;;;;;;;;5076039;28;20186;-50
2022/10/25 05:36:22;;;;;;;5.80;2.33;;;;;;;;;;5075912;28;20197;-54
2022/10/25 05:38:49;;;;;;;3.87;1.90;;;;;;;;;;5075820;28;20443;-50
2022/10/25 05:41:17;;;;;;;3.00;1.87;;;;;;;;;;5075623;28;20604;-50
2022/10/25 05:43:45;;;;;;;6.40;2.20;;;;;;;;;;5075932;28;20578;-52
2022/10/25 05:46:14;;;;;;;7.30;5.40;;;;;;;;;;5075956;28;20447;-50
2022/10/25 05:48:41;;;;;;;6.37;2.77;;;;;;;;;;5075326;28;20510;-51
2022/10/25 05:51:09;;;;;;;4.00;2.70;;;;;;;;;;5075524;28;20570;-52
2022/10/25 05:53:36;;;;;;;4.30;1.90;;;;;;;;;;5075579;28;20554;-50
2022/10/25 05:56:03;;;;;;;2.22;1.70;;;;;;;;;;5075193;28;20939;-50
2022/10/25 05:58:30;;;;;;;3.33;1.90;;;;;;;;;;5075799;28;20224;-53
2022/10/25 06:01:00;;;;;;;3.27;1.80;;;;;;;;;;5075344;28;20945;-52
2022/10/25 06:03:27;;;;;;;4.50;2.67;;;;;;;;;;5075739;28;20491;-51
2022/10/25 06:05:54;;;;;;;10.05;2.70;;;;;;;;;;5075355;28;20784;-52
2022/10/25 06:08:21;;;;;;;3.90;2.20;;;;;;;;;;5075149;28;20203;-50
2022/10/25 06:10:48;;;;;;;5.67;2.50;;;;;;;;;;5075434;28;20453;-50
2022/10/25 06:13:15;;;;;;;3.30;2.07;;;;;;;;;;5075194;28;20483;-51
2022/10/25 06:15:42;;;;;;;5.67;1.97;;;;;;;;;;5075191;28;20451;-51
2022/10/25 06:18:10;;;;;;;3.80;2.00;;;;;;;;;;5075053;28;20800;-53
2022/10/25 06:20:37;;;;;;;2.93;2.60;;;;;;;;;;5075061;28;20448;-53
2022/10/25 06:23:04;;;;;;;5.73;2.33;;;;;;;;;;5075179;28;20447;-51
2022/10/25 06:25:31;;;;;;;2.20;2.00;;;;;;;;;;5075332;28;20534;-50
2022/10/25 06:27:58;;;;;;;2.80;1.70;;;;;;;;;;5075032;28;20448;-49
2022/10/25 06:30:25;;;;;;;3.73;2.10;;;;;;;;;;5074916;28;20451;-53
2022/10/25 06:32:51;;;;;;;3.77;2.30;;;;;;;;;;5074821;28;20570;-52
2022/10/25 06:35:20;;;;;;;4.87;2.37;;;;;;;;;;5074784;28;20538;-50
2022/10/25 06:37:47;;;;;;;8.82;2.33;;;;;;;;;;5074712;28;20542;-51
2022/10/25 06:40:14;;;;;;;3.60;1.97;;;;;;;;;;5074866;28;20200;-49
2022/10/25 06:42:41;;;;;;;6.77;2.13;;;;;;;;;;5074702;28;20534;-55
2022/10/25 06:45:08;;;;;;;3.20;1.83;;;;;;;;;;5074598;28;20470;-50
2022/10/25 06:47:35;;;;;;;5.47;2.40;;;;;;;;;;5074596;28;20557;-52
2022/10/25 06:50:02;;;;;;;7.60;2.70;;;;;;;;;;5074333;28;20534;-49
2022/10/25 06:52:30;;;;;;;5.57;2.20;;;;;;;;;;5074140;28;20562;-52
2022/10/25 06:54:57;;;;;;;8.83;2.10;;;;;;;;;;5074216;28;20451;-51
2022/10/25 06:57:24;;;;;;;4.70;2.40;;;;;;;;;;5074493;28;20448;-50
2022/10/25 06:59:51;;;;;;;6.03;2.27;;;;;;;;;;5074244;28;20193;-50
2022/10/25 07:02:18;;;;;;;3.73;2.10;;;;;;;;;;5074189;28;20884;-50
2022/10/25 07:04:44;;;;;;;3.85;2.47;;;;;;;;;;5074109;28;20455;-54
2022/10/25 07:07:13;;;;;;;4.50;2.17;;;;;;;;;;5074175;28;20193;-50
2022/10/25 07:09:41;;;;;;;4.23;2.73;;;;;;;;;;5074134;28;20855;-50
2022/10/25 07:12:08;;;;;;;11.83;2.67;;;;;;;;;;5074286;28;20477;-50
2022/10/25 07:14:35;;;;;;;9.23;4.17;;;;;;;;;;5073959;28;20918;-51
2022/10/25 07:17:02;;;;;;;10.27;2.28;;;;;;;;;;5073798;28;20454;-50
2022/10/25 07:19:29;;;;;;;3.63;2.13;;;;;;;;;;5073682;28;20215;-51
2022/10/25 07:21:56;;;;;;;5.63;1.77;;;;;;;;;;5073907;28;20451;-51
2022/10/25 07:24:23;;;;;;;3.83;2.20;;;;;;;;;;5073839;28;20799;-51
2022/10/25 07:26:51;;;;;;;3.83;2.73;;;;;;;;;;5073901;28;20454;-50
2022/10/25 07:29:18;;;;;;;4.40;3.53;;;;;;;;;;5073275;28;20931;-51
2022/10/25 07:31:45;;;;;;;3.90;3.30;;;;;;;;;;5073689;28;20447;-51
2022/10/25 07:34:13;;;;;;;9.17;2.30;;;;;;;;;;5073044;28;20448;-51
2022/10/25 07:36:40;;;;;;;4.13;2.43;;;;;;;;;;5073559;28;20459;-50
2022/10/25 07:39:07;;;;;;;7.30;2.50;;;;;;;;;;5073215;28;20454;-51
2022/10/25 07:41:34;;;;;;;3.97;1.90;;;;;;;;;;5073564;28;20451;-59
2022/10/25 07:44:02;;;;;;;8.90;2.23;;;;;;;;;;5073315;28;20456;-65
2022/10/25 07:46:29;;;;;;;4.85;1.75;;;;;;;;;;5073114;28;20451;-59
2022/10/25 07:48:56;;;;;;;6.40;2.67;;;;;;;;;;5072967;28;20213;-59
2022/10/25 07:51:23;;;;;;;4.15;1.95;;;;;;;;;;5079414;28;20442;-57
2022/10/25 07:53:50;;;;;;;4.90;2.10;;;;;;;;;;5092941;28;20691;-57
2022/10/25 07:56:18;;;;;;;5.80;2.07;;;;;;;;;;5093315;28;20446;-54
2022/10/25 07:58:45;;;;;;;7.00;2.17;;;;;;;;;;5093242;28;20446;-48
2022/10/25 08:01:15;;;;;;;5.97;1.93;;;;;;;;;;5093265;28;20759;-48
2022/10/25 08:03:41;;;;;;;6.70;2.20;;;;;;;;;;5092587;28;21033;-51
2022/10/25 08:06:08;;;;;;;3.63;1.87;;;;;;;;;;5092804;28;20449;-54
2022/10/25 08:08:36;;;;;;;3.73;2.10;;;;;;;;;;5093414;28;20465;-64
2022/10/25 08:11:06;;;;;;;4.15;2.15;;;;;;;;;;5093229;28;20442;-59
2022/10/25 08:13:33;;;;;;;6.10;2.20;;;;;;;;;;5093003;28;20217;-59
2022/10/25 08:16:00;;;;;;;11.50;2.33;;;;;;;;;;5093157;28;20452;-60
2022/10/25 08:18:29;;;;;;;2.57;1.80;;;;;;;;;;5092840;28;20806;-58
2022/10/25 08:20:55;;;;;;;5.87;2.23;;;;;;;;;;5092241;28;20538;-59
2022/10/25 08:23:24;;;;;;;10.80;2.50;;;;;;;;;;5075627;28;20449;-61
2022/10/25 08:25:51;;;;;;;5.73;2.50;;;;;;;;;;5072817;28;20815;-62
2022/10/25 08:28:17;;;;;;;8.00;2.23;;;;;;;;;;5072690;28;20545;-60
2022/10/25 08:30:44;;;;;;;8.15;2.15;;;;;;;;;;5072750;28;20453;-56
2022/10/25 08:33:11;;;;;;;4.30;2.17;;;;;;;;;;5072746;28;20651;-56
2022/10/25 08:35:40;;;;;;;5.40;2.07;;;;;;;;;;5072675;28;20542;-55
2022/10/25 08:38:07;;;;;;;2.00;1.80;;;;;;;;;;5075275;28;20563;-56
2022/10/25 08:40:40;;;;;;;5.87;2.20;;;;;;;;;;5072347;28;20442;-58
2022/10/25 08:43:13;;;;;;;4.18;1.77;;;;;;;;;;5072747;28;20447;-58
2022/10/25 08:45:42;;;;;;;5.73;1.50;;;;;;;;;;5072670;28;20453;-59
2022/10/25 08:48:11;;;;;;;7.17;2.17;;;;;;;;;;5072334;28;20575;-59
2022/10/25 08:50:41;;;;;;;4.87;1.90;;;;;;;;;;5072506;28;20455;-59
2022/10/25 08:53:14;;;;;;;3.70;1.70;;;;;;;;;;5072008;28;20653;-58
2022/10/25 08:55:42;;;;;;;5.73;2.57;;;;;;;;;;5072653;28;20534;-54
2022/10/25 08:58:14;;;;;;;3.13;1.90;;;;;;;;;;5075807;28;20443;-56
2022/10/25 09:00:41;;;;;;;5.77;2.40;;;;;;;;;;5073412;28;20443;-59
2022/10/25 09:03:13;;;;;;;5.97;2.17;;;;;;;;;;5072416;28;20542;-61
2022/10/25 09:05:41;;;;;;;6.87;2.00;;;;;;;;;;5073036;28;20863;-58
2022/10/25 09:08:18;;;;;;;7.50;2.17;;;;;;;;;;5076360;28;20534;-59
2022/10/25 09:10:49;;;;;;;6.30;2.17;;;;;;;;;;5076540;28;20546;-58
2022/10/25 09:13:25;;;;;;;7.33;2.47;;;;;;;;;;5076321;28;20471;-58
2022/10/25 09:15:55;;;;;;;9.25;3.20;;;;;;;;;;5076232;28;20927;-51
2022/10/25 09:18:28;;;;;;;5.87;1.87;;;;;;;;;;5076421;28;20189;-51
2022/10/25 09:20:55;;;;;;;6.32;2.47;;;;;;;;;;5076182;28;20506;-60
2022/10/25 09:23:28;;;;;;;6.83;2.13;;;;;;;;;;5076079;28;20300;-51
2022/10/25 09:26:01;;;;;;;4.03;1.87;;;;;;;;;;5075772;28;20443;-54
2022/10/25 09:28:34;;;;;;;7.13;2.20;;;;;;;;;;5075790;28;20455;-54
2022/10/25 09:31:02;;;;;;;5.93;2.43;;;;;;;;;;5076132;28;20453;-57
2022/10/25 09:33:30;;;;;;;5.03;2.10;;;;;;;;;;5075861;28;20478;-60
2022/10/25 09:35:58;;;;;;;7.90;2.53;;;;;;;;;;5075698;28;20967;-59
2022/10/25 09:38:29;;;;;;;3.80;2.50;;;;;;;;;;5075445;28;20451;-56
2022/10/25 09:41:00;;;;;;;9.80;2.97;;;;;;;;;;5075659;28;20448;-57
2022/10/25 09:43:29;;;;;;;7.57;2.67;;;;;;;;;;5075525;28;20893;-58
2022/10/25 09:45:58;;;;;;;7.93;2.57;;;;;;;;;;5075508;28;20788;-57
2022/10/25 09:48:27;;;;;;;4.38;2.80;;;;;;;;;;5075300;28;20977;-59
2022/10/25 09:51:01;;;;;;;3.53;2.10;;;;;;;;;;5075576;28;20572;-59
2022/10/25 09:53:31;;;;;;;5.43;1.73;;;;;;;;;;5075371;28;20485;-59
2022/10/25 09:55:59;;;;;;;6.20;2.00;;;;;;;;;;5075444;28;20642;-60
2022/10/25 09:58:27;;;;;;;7.70;1.80;;;;;;;;;;5074870;28;20943;-59
2022/10/25 10:00:55;;;;;;;5.60;2.17;;;;;;;;;;5075414;28;20833;-57
2022/10/25 10:03:23;;;;;;;5.67;1.73;;;;;;;;;;5075366;28;20473;-57
2022/10/25 10:05:54;;;;;;;3.17;1.80;;;;;;;;;;5075104;28;20454;-52
2022/10/25 10:08:20;;;;;;;5.70;2.40;;;;;;;;;;5075262;28;20939;-56
2022/10/25 10:10:50;;;;;;;9.10;2.73;;;;;;;;;;5075223;28;20443;-56
2022/10/25 10:13:19;;;;;;;6.63;2.23;;;;;;;;;;5075180;28;20477;-56
2022/10/25 10:15:50;;;;;;;5.22;1.90;;;;;;;;;;5074895;28;20447;-56
2022/10/25 10:18:24;;;;;;;3.57;1.80;;;;;;;;;;5074599;28;20194;-57
2022/10/25 10:20:59;;;;;;;6.13;1.90;;;;;;;;;;5075279;28;20847;-55
2022/10/25 10:23:26;;;;;;;7.10;1.63;;;;;;;;;;5075043;28;20545;-54
2022/10/25 10:25:54;;;;;;;3.97;2.10;;;;;;;;;;5074997;28;20193;-58
2022/10/25 10:28:22;;;;;;;3.67;1.63;;;;;;;;;;5074987;28;20453;-53
2022/10/25 10:30:53;;;;;;;7.43;2.27;;;;;;;;;;5074442;28;20744;-58
2022/10/25 10:33:20;;;;;;;7.50;1.83;;;;;;;;;;5074716;28;20507;-55
2022/10/25 10:35:47;;;;;;;8.20;2.50;;;;;;;;;;5074634;28;20539;-56
2022/10/25 10:38:19;;;;;;;5.90;2.03;;;;;;;;;;5074710;28;20542;-55
2022/10/25 10:40:46;;;;;;;4.93;2.00;;;;;;;;;;5074739;28;20447;-59
2022/10/25 10:43:24;;;;;;;6.13;1.63;;;;;;;;;;5074569;28;20451;-59
2022/10/25 10:45:52;;;;;;;2.40;2.00;;;;;;;;;;5074046;28;20451;-58
2022/10/25 10:48:20;;;;;;;6.67;2.03;;;;;;;;;;5074010;28;20986;-60
2022/10/25 10:50:49;;;;;;;4.90;1.90;;;;;;;;;;5074356;28;20452;-60
2022/10/25 10:53:20;;;;;;;3.77;2.00;;;;;;;;;;5074377;28;20471;-57
2022/10/25 10:55:48;;;;;;;4.50;1.83;;;;;;;;;;5074128;28;20448;-58
2022/10/25 10:58:16;;;;;;;18.97;4.47;;;;;;;;;;5074261;28;20965;-58
2022/10/25 11:00:50;;;;;;;3.90;1.80;;;;;;;;;;5074445;28;20447;-55
2022/10/25 11:03:36;;;;;;;4.77;2.37;;;;;;;;;;5074171;28;20489;-58
2022/10/25 11:06:05;;;;;;;3.37;1.83;;;;;;;;;;5073966;28;20452;-58
2022/10/25 11:08:32;;;;;;;4.00;2.10;;;;;;;;;;5079027;28;20927;-59
2022/10/25 11:11:12;;;;;;;5.70;2.17;;;;;;;;;;5091437;28;20829;-59
2022/10/25 11:13:39;;;;;;;3.53;1.67;;;;;;;;;;5094258;28;20565;-59
2022/10/25 11:16:18;;;;;;;5.70;2.00;;;;;;;;;;5094094;28;20452;-57
2022/10/25 11:18:51;;;;;;;6.13;2.53;;;;;;;;;;5093933;28;20199;-59
2022/10/25 11:21:27;;;;;;;4.13;1.80;;;;;;;;;;5094855;28;20792;-59
2022/10/25 11:24:02;;;;;;;5.37;2.07;;;;;;;;;;5094345;28;20449;-61
2022/10/25 11:26:33;;;;;;;3.07;1.60;;;;;;;;;;5094020;28;20442;-58
2022/10/25 11:29:04;;;;;;;4.17;1.63;;;;;;;;;;5093172;28;20450;-59
2022/10/25 11:31:38;;;;;;;3.30;1.97;;;;;;;;;;5093706;28;20450;-60
2022/10/25 11:34:12;;;;;;;2.23;1.30;;;;;;;;;;5093764;28;20535;-57
2022/10/25 11:36:48;;;;;;;6.60;1.70;;;;;;;;;;5093803;28;20447;-55
2022/10/25 11:39:25;;;;;;;3.50;1.67;;;;;;;;;;5093914;28;20458;-58
2022/10/25 11:41:54;;;;;;;4.17;1.70;;;;;;;;;;5093424;28;20938;-61
2022/10/25 11:44:40;;;;;;;4.17;1.93;;;;;;;;;;5093979;28;20549;-59
2022/10/25 11:47:11;;;;;;;3.33;2.20;;;;;;;;;;5093441;28;20524;-59
2022/10/25 11:49:43;;;;;;;4.60;1.70;;;;;;;;;;5093350;28;20987;-59
2022/10/25 11:52:28;;;;;;;7.18;2.35;;;;;;;;;;5093429;28;20492;-59
2022/10/25 11:55:01;;;;;;;9.93;5.67;;;;;;;;;;5093461;28;20299;-59
2022/10/25 11:57:34;;;;;;;10.45;4.95;;;;;;;;;;5093464;28;20469;-60
2022/10/25 12:00:03;;;;;;;4.63;2.08;;;;;;;;;;5093404;28;20279;-60
2022/10/25 12:02:45;;;;;;;4.03;1.97;;;;;;;;;;5093356;28;20555;-59
2022/10/25 12:05:21;;;;;;;3.28;1.73;;;;;;;;;;5093291;28;20537;-60
2022/10/25 12:07:50;;;;;;;4.53;1.87;;;;;;;;;;5093377;28;20207;-60
2022/10/25 12:10:21;;;;;;;4.03;1.80;;;;;;;;;;5093125;28;21002;-60
2022/10/25 12:12:50;;;;;;;4.30;1.93;;;;;;;;;;5092883;28;20542;-59
2022/10/25 12:15:20;;;;;;;2.90;1.53;;;;;;;;;;5092915;28;20569;-58
2022/10/25 12:17:50;;;;;;;3.77;1.43;;;;;;;;;;5093824;28;20577;-61
2022/10/25 12:20:20;;;;;;;5.20;2.30;;;;;;;;;;5093177;28;20482;-57
2022/10/25 12:22:49;;;;;;;4.53;2.03;;;;;;;;;;5092770;28;20549;-57
2022/10/25 12:25:19;;;;;;;4.40;1.70;;;;;;;;;;5092749;28;20451;-58
2022/10/25 12:27:48;;;;;;;3.17;2.03;;;;;;;;;;5092687;28;20473;-55
2022/10/25 12:30:16;;;;;;;3.47;2.03;;;;;;;;;;5092868;28;20450;-59
2022/10/25 12:32:44;;;;;;;7.77;2.10;;;;;;;;;;5092861;28;20472;-57
2022/10/25 12:35:19;;;;;;;2.63;1.67;;;;;;;;;;5092672;28;20482;-60
2022/10/25 12:37:48;;;;;;;3.27;1.60;;;;;;;;;;5092656;28;20469;-60
2022/10/25 12:40:16;;;;;;;4.13;1.90;;;;;;;;;;5092287;28;20938;-59
2022/10/25 12:42:45;;;;;;;5.23;1.60;;;;;;;;;;5092710;28;20442;-59
2022/10/25 12:45:27;;;;;;;3.83;1.60;;;;;;;;;;5092720;28;20446;-59
2022/10/25 12:47:59;;;;;;;3.30;1.83;;;;;;;;;;5092600;28;20481;-60
2022/10/25 12:50:33;;;;;;;4.27;1.77;;;;;;;;;;5092711;28;20545;-60
2022/10/25 12:53:07;;;;;;;3.40;2.00;;;;;;;;;;5092908;28;20449;-59
2022/10/25 12:55:40;;;;;;;3.40;1.40;;;;;;;;;;5092664;28;21011;-59
2022/10/25 12:58:18;;;;;;;5.30;1.27;;;;;;;;;;5092645;28;20951;-59
2022/10/25 13:00:47;;;;;;;4.23;1.90;;;;;;;;;;5092543;28;20937;-59
2022/10/25 13:03:31;;;;;;;1.90;1.20;;;;;;;;;;5092539;28;20453;-59
2022/10/25 13:06:18;;;;;;;3.07;1.97;;;;;;;;;;5092569;28;20484;-59
2022/10/25 13:08:45;;;;;;;4.67;2.10;;;;;;;;;;5092548;28;20481;-59
2022/10/25 13:11:12;;;;;;;2.67;1.80;;;;;;;;;;5092474;28;20533;-59
2022/10/25 13:13:40;;;;;;;3.05;1.52;;;;;;;;;;5092385;28;20446;-59
2022/10/25 13:16:09;;;;;;;7.40;1.75;;;;;;;;;;5092568;28;20184;-59
2022/10/25 13:18:42;;;;;;;2.13;1.33;;;;;;;;;;5092670;28;20279;-59
2022/10/25 13:21:10;;;;;;;4.13;1.50;;;;;;;;;;5092404;28;20545;-59
2022/10/25 13:24:01;;;;;;;5.37;1.30;;;;;;;;;;5092465;28;20478;-59
2022/10/25 13:26:31;;;;;;;2.70;1.43;;;;;;;;;;5092505;28;20465;-60
2022/10/25 13:28:59;;;;;;;2.40;1.50;;;;;;;;;;5092517;28;20454;-59
2022/10/25 13:31:31;;;;;;;1.85;1.27;;;;;;;;;;5092400;28;20525;-60
2022/10/25 13:34:21;;;;;;;2.13;1.20;;;;;;;;;;5092303;28;20216;-60
2022/10/25 13:36:50;;;;;;;3.77;1.60;;;;;;;;;;5092411;28;20489;-59
2022/10/25 13:39:21;;;;;;;4.97;2.30;;;;;;;;;;5092348;28;20866;-59
2022/10/25 13:41:49;;;;;;;6.60;2.00;;;;;;;;;;5092395;28;20545;-59
2022/10/25 13:44:19;;;;;;;6.07;2.10;;;;;;;;;;5092252;28;20450;-59
2022/10/25 13:46:47;;;;;;;3.13;1.63;;;;;;;;;;5091714;28;20446;-60
2022/10/25 13:49:28;;;;;;;4.33;1.83;;;;;;;;;;5092321;28;20446;-60
2022/10/25 13:51:55;;;;;;;10.43;2.10;;;;;;;;;;5093340;28;20542;-60
2022/10/25 13:54:22;;;;;;;5.07;2.07;;;;;;;;;;5095762;28;20474;-60
2022/10/25 13:56:51;;;;;;;4.17;2.47;;;;;;;;;;5095733;28;20447;-60
2022/10/25 13:59:35;;;;;;;5.20;2.20;;;;;;;;;;5095542;28;20451;-60
2022/10/25 14:02:08;;;;;;;8.93;2.90;;;;;;;;;;5095738;28;20458;-59
2022/10/25 14:04:39;;;;;;;7.27;2.60;;;;;;;;;;5095732;28;20537;-60
2022/10/25 14:07:24;;;;;;;4.63;2.90;;;;;;;;;;5095539;28;20454;-60
2022/10/25 14:09:53;;;;;;;5.67;3.30;;;;;;;;;;5095225;28;20446;-60
2022/10/25 14:12:22;;;;;;;5.50;3.40;;;;;;;;;;5095632;28;20537;-60
2022/10/25 14:14:53;;;;;;;6.85;3.60;;;;;;;;;;5095518;28;20856;-60
2022/10/25 14:17:25;;;;;;;5.43;4.07;;;;;;;;;;5095557;28;20280;-60
2022/10/25 14:19:54;;;;;;;8.60;4.93;;;;;;;;;;5095403;28;20443;-60
2022/10/25 14:22:23;;;;;;;13.40;7.00;;;;;;;;;;5095176;28;20501;-60
2022/10/25 14:24:52;;;;;;;9.57;6.00;;;;;;;;;;5095423;28;20449;-61
2022/10/25 14:27:28;;;;;;;7.10;6.43;;;;;;;;;;5095250;28;20457;-60
2022/10/25 14:30:10;;;;;;;7.40;6.10;;;;;;;;;;5095163;28;20454;-60
2022/10/25 14:32:37;;;;;;;8.23;5.70;;;;;;;;;;5095073;28;20801;-59
2022/10/25 14:35:04;;;;;;;8.83;7.30;;;;;;;;;;5095009;28;20489;-60
2022/10/25 14:37:31;;;;;;;4.50;3.20;;;;;;;;;;5095233;28;20450;-60
2022/10/25 14:39:58;;;;;;;6.10;2.80;;;;;;;;;;5094947;28;21057;-60
2022/10/25 14:42:25;;;;;;;5.23;3.03;;;;;;;;;;5094803;28;20447;-60
2022/10/25 14:44:53;;;;;;;5.13;3.33;;;;;;;;;;5094772;28;20454;-60
2022/10/25 14:47:30;;;;;;;2.53;2.20;;;;;;;;;;5094499;28;20477;-59
2022/10/25 14:49:58;;;;;;;2.83;2.37;;;;;;;;;;5094851;28;20809;-59
2022/10/25 14:52:25;;;;;;;3.23;2.93;;;;;;;;;;5094789;28;20442;-60
2022/10/25 14:54:54;;;;;;;2.90;2.40;;;;;;;;;;5094580;28;20481;-59
2022/10/25 14:57:23;;;;;;;3.07;2.63;;;;;;;;;;5094517;28;20533;-60